sensor_id;sensor_type;location;lat;lon;timestamp;pressure;altitude;pressure_sealevel;temperature;humidity
72061;BME280;59925;52.136;5.420;2022-12-24T00:00:02;100707.09;;;8.89;99.16
72061;BME280;59925;52.136;5.420;2022-12-24T00:02:29;100722.06;;;8.90;98.83
72061;BME280;59925;52.136;5.420;2022-12-24T00:04:55;100718.59;;;8.89;98.94
72061;BME280;59925;52.136;5.420;2022-12-24T00:07:26;100732.22;;;8.88;99.13
72061;BME280;59925;52.136;5.420;2022-12-24T00:09:52;100730.09;;;8.90;99.15
72061;BME280;59925;52.136;5.420;2022-12-24T00:12:19;100728.19;;;8.85;99.41
72061;BME280;59925;52.136;5.420;2022-12-24T00:14:45;100726.59;;;8.84;99.18
72061;BME280;59925;52.136;5.420;2022-12-24T00:17:12;100740.78;;;8.85;99.36
72061;BME280;59925;52.136;5.420;2022-12-24T00:19:38;100746.13;;;8.85;99.44
72061;BME280;59925;52.136;5.420;2022-12-24T00:22:05;100738.38;;;8.88;99.17
72061;BME280;59925;52.136;5.420;2022-12-24T00:24:31;100746.41;;;8.88;99.24
72061;BME280;59925;52.136;5.420;2022-12-24T00:26:58;100745.59;;;8.88;99.10
72061;BME280;59925;52.136;5.420;2022-12-24T00:29:24;100752.31;;;8.91;98.88
72061;BME280;59925;52.136;5.420;2022-12-24T00:31:51;100752.00;;;8.87;99.09
72061;BME280;59925;52.136;5.420;2022-12-24T00:34:17;100755.22;;;8.89;98.54
72061;BME280;59925;52.136;5.420;2022-12-24T00:36:44;100762.97;;;8.85;98.56
72061;BME280;59925;52.136;5.420;2022-12-24T00:39:10;100769.38;;;8.84;98.83
72061;BME280;59925;52.136;5.420;2022-12-24T00:41:36;100762.69;;;8.82;98.52
72061;BME280;59925;52.136;5.420;2022-12-24T00:44:05;100777.63;;;8.78;98.57
72061;BME280;59925;52.136;5.420;2022-12-24T00:46:36;100779.72;;;8.76;98.75
72061;BME280;59925;52.136;5.420;2022-12-24T00:49:04;100777.34;;;8.74;98.85
72061;BME280;59925;52.136;5.420;2022-12-24T00:51:32;100787.22;;;8.73;98.51
72061;BME280;59925;52.136;5.420;2022-12-24T00:53:58;100785.84;;;8.71;98.42
72061;BME280;59925;52.136;5.420;2022-12-24T00:56:25;100786.38;;;8.68;98.79
72061;BME280;59925;52.136;5.420;2022-12-24T00:58:51;100802.16;;;8.69;98.70
72061;BME280;59925;52.136;5.420;2022-12-24T01:01:18;100806.44;;;8.70;98.49
72061;BME280;59925;52.136;5.420;2022-12-24T01:03:46;100806.44;;;8.70;98.81
72061;BME280;59925;52.136;5.420;2022-12-24T01:06:18;100822.16;;;8.67;98.94
72061;BME280;59925;52.136;5.420;2022-12-24T01:08:49;100819.78;;;8.65;99.00
72061;BME280;59925;52.136;5.420;2022-12-24T01:11:16;100823.78;;;8.63;98.87
72061;BME280;59925;52.136;5.420;2022-12-24T01:13:43;100830.97;;;8.62;98.96
72061;BME280;59925;52.136;5.420;2022-12-24T01:16:15;100843.28;;;8.63;98.96
72061;BME280;59925;52.136;5.420;2022-12-24T01:18:42;100849.16;;;8.60;99.05
72061;BME280;59925;52.136;5.420;2022-12-24T01:21:09;100842.13;;;8.54;98.99
72061;BME280;59925;52.136;5.420;2022-12-24T01:23:35;100859.50;;;8.51;99.04
72061;BME280;59925;52.136;5.420;2022-12-24T01:26:03;100861.84;;;8.48;98.58
72061;BME280;59925;52.136;5.420;2022-12-24T01:28:31;100865.53;;;8.41;98.63
72061;BME280;59925;52.136;5.420;2022-12-24T01:30:58;100862.56;;;8.38;98.82
72061;BME280;59925;52.136;5.420;2022-12-24T01:33:28;100868.41;;;8.35;98.77
72061;BME280;59925;52.136;5.420;2022-12-24T01:35:55;100864.91;;;8.34;98.62
72061;BME280;59925;52.136;5.420;2022-12-24T01:38:21;100865.94;;;8.28;98.60
72061;BME280;59925;52.136;5.420;2022-12-24T01:40:48;100864.25;;;8.22;98.77
72061;BME280;59925;52.136;5.420;2022-12-24T01:43:33;100871.94;;;8.13;98.80
72061;BME280;59925;52.136;5.420;2022-12-24T01:46:04;100874.81;;;8.06;98.54
72061;BME280;59925;52.136;5.420;2022-12-24T01:48:48;100862.44;;;8.00;98.81
72061;BME280;59925;52.136;5.420;2022-12-24T01:51:36;100875.75;;;7.95;98.53
72061;BME280;59925;52.136;5.420;2022-12-24T01:54:23;100882.09;;;7.89;98.98
72061;BME280;59925;52.136;5.420;2022-12-24T01:57:04;100888.19;;;7.84;98.96
72061;BME280;59925;52.136;5.420;2022-12-24T01:59:33;100885.94;;;7.76;99.08
72061;BME280;59925;52.136;5.420;2022-12-24T02:02:01;100893.16;;;7.75;98.92
72061;BME280;59925;52.136;5.420;2022-12-24T02:04:37;100896.88;;;7.74;99.00
72061;BME280;59925;52.136;5.420;2022-12-24T02:07:05;100895.19;;;7.68;99.10
72061;BME280;59925;52.136;5.420;2022-12-24T02:09:32;100900.16;;;7.59;99.18
72061;BME280;59925;52.136;5.420;2022-12-24T02:12:00;100896.69;;;7.59;99.16
72061;BME280;59925;52.136;5.420;2022-12-24T02:14:28;100908.09;;;7.54;99.23
72061;BME280;59925;52.136;5.420;2022-12-24T02:17:15;100913.69;;;7.53;99.26
72061;BME280;59925;52.136;5.420;2022-12-24T02:20:18;100922.19;;;7.49;99.13
72061;BME280;59925;52.136;5.420;2022-12-24T02:23:25;100923.16;;;7.43;99.33
72061;BME280;59925;52.136;5.420;2022-12-24T02:29:19;100929.16;;;7.33;99.34
72061;BME280;59925;52.136;5.420;2022-12-24T02:32:01;100936.84;;;7.30;99.42
72061;BME280;59925;52.136;5.420;2022-12-24T02:34:46;100933.53;;;7.23;99.38
72061;BME280;59925;52.136;5.420;2022-12-24T02:37:22;100935.63;;;7.20;99.44
72061;BME280;59925;52.136;5.420;2022-12-24T02:40:02;100938.56;;;7.19;99.64
72061;BME280;59925;52.136;5.420;2022-12-24T02:42:42;100936.13;;;7.17;99.74
72061;BME280;59925;52.136;5.420;2022-12-24T02:45:13;100938.78;;;7.17;100.00
72061;BME280;59925;52.136;5.420;2022-12-24T02:47:42;100935.25;;;7.12;99.98
72061;BME280;59925;52.136;5.420;2022-12-24T02:50:15;100937.03;;;7.06;100.00
72061;BME280;59925;52.136;5.420;2022-12-24T02:52:44;100937.03;;;7.06;99.91
72061;BME280;59925;52.136;5.420;2022-12-24T03:03:36;100965.88;;;6.92;100.00
72061;BME280;59925;52.136;5.420;2022-12-24T03:06:15;100974.09;;;6.90;100.00
72061;BME280;59925;52.136;5.420;2022-12-24T03:11:18;100976.19;;;6.88;100.00
72061;BME280;59925;52.136;5.420;2022-12-24T03:13:46;100967.38;;;6.88;100.00
72061;BME280;59925;52.136;5.420;2022-12-24T03:16:20;100968.44;;;6.87;100.00
72061;BME280;59925;52.136;5.420;2022-12-24T03:18:49;100965.53;;;6.88;100.00
72061;BME280;59925;52.136;5.420;2022-12-24T03:21:35;100966.03;;;6.85;100.00
72061;BME280;59925;52.136;5.420;2022-12-24T03:24:03;100960.69;;;6.85;100.00
72061;BME280;59925;52.136;5.420;2022-12-24T03:26:31;100964.97;;;6.86;100.00
72061;BME280;59925;52.136;5.420;2022-12-24T03:28:58;100974.81;;;6.86;100.00
72061;BME280;59925;52.136;5.420;2022-12-24T03:31:25;100973.19;;;6.85;100.00
72061;BME280;59925;52.136;5.420;2022-12-24T03:33:52;100978.78;;;6.83;100.00
72061;BME280;59925;52.136;5.420;2022-12-24T03:36:18;100982.22;;;6.84;100.00
72061;BME280;59925;52.136;5.420;2022-12-24T03:38:45;100980.63;;;6.83;100.00
72061;BME280;59925;52.136;5.420;2022-12-24T03:41:11;100975.28;;;6.83;100.00
72061;BME280;59925;52.136;5.420;2022-12-24T03:43:37;100985.16;;;6.82;100.00
72061;BME280;59925;52.136;5.420;2022-12-24T03:46:06;100982.38;;;6.77;100.00
72061;BME280;59925;52.136;5.420;2022-12-24T03:48:33;100989.00;;;6.74;100.00
72061;BME280;59925;52.136;5.420;2022-12-24T03:51:01;100989.66;;;6.82;100.00
72061;BME280;59925;52.136;5.420;2022-12-24T03:53:28;100983.84;;;6.85;100.00
72061;BME280;59925;52.136;5.420;2022-12-24T03:55:54;100993.56;;;6.91;100.00
72061;BME280;59925;52.136;5.420;2022-12-24T03:58:21;101002.69;;;6.95;100.00
72061;BME280;59925;52.136;5.420;2022-12-24T04:00:47;101001.41;;;6.98;100.00
72061;BME280;59925;52.136;5.420;2022-12-24T04:03:14;100994.63;;;7.07;100.00
72061;BME280;59925;52.136;5.420;2022-12-24T04:05:40;100992.28;;;7.11;100.00
72061;BME280;59925;52.136;5.420;2022-12-24T04:08:07;101003.03;;;7.16;100.00
72061;BME280;59925;52.136;5.420;2022-12-24T04:10:34;101003.34;;;7.19;100.00
72061;BME280;59925;52.136;5.420;2022-12-24T04:13:00;101001.56;;;7.25;100.00
72061;BME280;59925;52.136;5.420;2022-12-24T04:15:26;101006.81;;;7.37;100.00
72061;BME280;59925;52.136;5.420;2022-12-24T04:17:53;100996.22;;;7.42;100.00
72061;BME280;59925;52.136;5.420;2022-12-24T04:20:19;100996.00;;;7.44;100.00
72061;BME280;59925;52.136;5.420;2022-12-24T04:22:46;101007.72;;;7.43;100.00
72061;BME280;59925;52.136;5.420;2022-12-24T04:25:12;100996.56;;;7.46;100.00
72061;BME280;59925;52.136;5.420;2022-12-24T04:27:38;101007.06;;;7.53;100.00
72061;BME280;59925;52.136;5.420;2022-12-24T04:30:05;101010.84;;;7.57;100.00
72061;BME280;59925;52.136;5.420;2022-12-24T04:32:32;101008.25;;;7.62;100.00
72061;BME280;59925;52.136;5.420;2022-12-24T04:34:59;101006.72;;;7.66;100.00
72061;BME280;59925;52.136;5.420;2022-12-24T04:37:25;101008.66;;;7.71;100.00
72061;BME280;59925;52.136;5.420;2022-12-24T04:39:51;101012.69;;;7.73;100.00
72061;BME280;59925;52.136;5.420;2022-12-24T04:42:18;101020.44;;;7.75;100.00
72061;BME280;59925;52.136;5.420;2022-12-24T04:44:44;101020.78;;;7.78;100.00
72061;BME280;59925;52.136;5.420;2022-12-24T04:47:11;101029.34;;;7.80;100.00
72061;BME280;59925;52.136;5.420;2022-12-24T04:49:37;101026.66;;;7.80;100.00
72061;BME280;59925;52.136;5.420;2022-12-24T04:52:04;101019.75;;;7.85;100.00
72061;BME280;59925;52.136;5.420;2022-12-24T04:54:30;101019.47;;;7.81;100.00
72061;BME280;59925;52.136;5.420;2022-12-24T04:56:56;101016.00;;;7.80;100.00
72061;BME280;59925;52.136;5.420;2022-12-24T04:59:23;101024.72;;;7.76;100.00
72061;BME280;59925;52.136;5.420;2022-12-24T05:01:49;101029.50;;;7.74;100.00
72061;BME280;59925;52.136;5.420;2022-12-24T05:04:16;101031.66;;;7.77;100.00
72061;BME280;59925;52.136;5.420;2022-12-24T05:06:42;101035.16;;;7.77;100.00
72061;BME280;59925;52.136;5.420;2022-12-24T05:09:08;101033.59;;;7.81;100.00
72061;BME280;59925;52.136;5.420;2022-12-24T05:11:35;101034.16;;;7.83;100.00
72061;BME280;59925;52.136;5.420;2022-12-24T05:14:01;101032.06;;;7.86;100.00
72061;BME280;59925;52.136;5.420;2022-12-24T05:16:28;101029.16;;;7.87;100.00
72061;BME280;59925;52.136;5.420;2022-12-24T05:18:54;101028.09;;;7.88;100.00
72061;BME280;59925;52.136;5.420;2022-12-24T05:21:22;101023.31;;;7.90;100.00
72061;BME280;59925;52.136;5.420;2022-12-24T05:23:50;101027.09;;;7.94;100.00
72061;BME280;59925;52.136;5.420;2022-12-24T05:26:39;101035.59;;;7.91;100.00
72061;BME280;59925;52.136;5.420;2022-12-24T05:29:07;101041.78;;;7.92;100.00
72061;BME280;59925;52.136;5.420;2022-12-24T05:31:34;101039.41;;;7.95;100.00
72061;BME280;59925;52.136;5.420;2022-12-24T05:34:01;101035.44;;;7.98;100.00
72061;BME280;59925;52.136;5.420;2022-12-24T05:36:28;101041.06;;;8.02;100.00
72061;BME280;59925;52.136;5.420;2022-12-24T05:38:55;101040.28;;;8.01;100.00
72061;BME280;59925;52.136;5.420;2022-12-24T05:41:21;101050.69;;;8.03;100.00
72061;BME280;59925;52.136;5.420;2022-12-24T05:43:48;101061.94;;;8.05;100.00
72061;BME280;59925;52.136;5.420;2022-12-24T05:46:16;101051.84;;;8.07;100.00
72061;BME280;59925;52.136;5.420;2022-12-24T05:48:44;101048.91;;;8.08;100.00
72061;BME280;59925;52.136;5.420;2022-12-24T05:51:12;101045.75;;;8.11;100.00
72061;BME280;59925;52.136;5.420;2022-12-24T05:53:40;101052.72;;;8.12;100.00
72061;BME280;59925;52.136;5.420;2022-12-24T05:56:10;101043.66;;;8.13;100.00
72061;BME280;59925;52.136;5.420;2022-12-24T05:58:37;101054.06;;;8.15;100.00
72061;BME280;59925;52.136;5.420;2022-12-24T06:01:04;101049.25;;;8.12;100.00
72061;BME280;59925;52.136;5.420;2022-12-24T06:03:31;101057.56;;;8.16;100.00
72061;BME280;59925;52.136;5.420;2022-12-24T06:06:03;101065.31;;;8.17;100.00
72061;BME280;59925;52.136;5.420;2022-12-24T06:08:30;101068.84;;;8.23;100.00
72061;BME280;59925;52.136;5.420;2022-12-24T06:10:59;101061.66;;;8.23;100.00
72061;BME280;59925;52.136;5.420;2022-12-24T06:13:26;101056.31;;;8.23;100.00
72061;BME280;59925;52.136;5.420;2022-12-24T06:15:54;101064.03;;;8.20;100.00
72061;BME280;59925;52.136;5.420;2022-12-24T06:18:21;101069.13;;;8.21;100.00
72061;BME280;59925;52.136;5.420;2022-12-24T06:20:52;101072.84;;;8.20;100.00
72061;BME280;59925;52.136;5.420;2022-12-24T06:23:19;101076.88;;;8.23;100.00
72061;BME280;59925;52.136;5.420;2022-12-24T06:25:46;101085.44;;;8.25;100.00
72061;BME280;59925;52.136;5.420;2022-12-24T06:28:13;101083.34;;;8.27;100.00
72061;BME280;59925;52.136;5.420;2022-12-24T06:30:40;101079.63;;;8.28;100.00
72061;BME280;59925;52.136;5.420;2022-12-24T06:33:07;101085.75;;;8.28;100.00
72061;BME280;59925;52.136;5.420;2022-12-24T06:35:33;101081.47;;;8.27;100.00
72061;BME280;59925;52.136;5.420;2022-12-24T06:37:59;101091.59;;;8.25;100.00
72061;BME280;59925;52.136;5.420;2022-12-24T06:40:26;101089.47;;;8.27;100.00
72061;BME280;59925;52.136;5.420;2022-12-24T06:42:53;101086.81;;;8.27;100.00
72061;BME280;59925;52.136;5.420;2022-12-24T06:45:19;101089.81;;;8.31;100.00
72061;BME280;59925;52.136;5.420;2022-12-24T06:47:46;101097.00;;;8.31;100.00
72061;BME280;59925;52.136;5.420;2022-12-24T06:50:12;101100.25;;;8.33;100.00
72061;BME280;59925;52.136;5.420;2022-12-24T06:52:39;101102.66;;;8.34;100.00
72061;BME280;59925;52.136;5.420;2022-12-24T06:55:06;101111.50;;;8.35;100.00
72061;BME280;59925;52.136;5.420;2022-12-24T06:57:32;101116.56;;;8.36;100.00
72061;BME280;59925;52.136;5.420;2022-12-24T06:59:59;101111.22;;;8.36;100.00
72061;BME280;59925;52.136;5.420;2022-12-24T07:02:26;101105.09;;;8.36;100.00
72061;BME280;59925;52.136;5.420;2022-12-24T07:04:53;101105.66;;;8.38;100.00
72061;BME280;59925;52.136;5.420;2022-12-24T07:07:19;101109.69;;;8.40;100.00
72061;BME280;59925;52.136;5.420;2022-12-24T07:09:46;101108.06;;;8.39;100.00
72061;BME280;59925;52.136;5.420;2022-12-24T07:12:12;101105.66;;;8.38;100.00
72061;BME280;59925;52.136;5.420;2022-12-24T07:14:39;101120.88;;;8.37;100.00
72061;BME280;59925;52.136;5.420;2022-12-24T07:17:05;101123.53;;;8.37;100.00
72061;BME280;59925;52.136;5.420;2022-12-24T07:19:32;101126.69;;;8.34;100.00
72061;BME280;59925;52.136;5.420;2022-12-24T07:21:59;101114.09;;;8.29;100.00
72061;BME280;59925;52.136;5.420;2022-12-24T07:24:25;101120.47;;;8.28;100.00
72061;BME280;59925;52.136;5.420;2022-12-24T07:26:52;101119.38;;;8.24;100.00
72061;BME280;59925;52.136;5.420;2022-12-24T07:29:18;101129.97;;;8.19;100.00
72061;BME280;59925;52.136;5.420;2022-12-24T07:31:45;101140.91;;;8.18;100.00
72061;BME280;59925;52.136;5.420;2022-12-24T07:34:12;101150.28;;;8.20;100.00
72061;BME280;59925;52.136;5.420;2022-12-24T07:36:38;101156.50;;;8.26;100.00
72061;BME280;59925;52.136;5.420;2022-12-24T07:39:04;101162.41;;;8.28;100.00
72061;BME280;59925;52.136;5.420;2022-12-24T07:41:31;101180.38;;;8.33;100.00
72061;BME280;59925;52.136;5.420;2022-12-24T07:44:11;101182.00;;;8.34;100.00
72061;BME280;59925;52.136;5.420;2022-12-24T07:46:38;101178.28;;;8.35;100.00
72061;BME280;59925;52.136;5.420;2022-12-24T07:49:04;101191.38;;;8.36;100.00
72061;BME280;59925;52.136;5.420;2022-12-24T07:51:31;101189.75;;;8.35;100.00
72061;BME280;59925;52.136;5.420;2022-12-24T07:53:57;101194.88;;;8.37;100.00
72061;BME280;59925;52.136;5.420;2022-12-24T07:56:24;101201.25;;;8.36;100.00
72061;BME280;59925;52.136;5.420;2022-12-24T07:58:50;101212.75;;;8.36;100.00
72061;BME280;59925;52.136;5.420;2022-12-24T08:01:17;101216.25;;;8.37;100.00
72061;BME280;59925;52.136;5.420;2022-12-24T08:03:44;101226.94;;;8.37;100.00
72061;BME280;59925;52.136;5.420;2022-12-24T08:06:11;101230.72;;;8.41;100.00
72061;BME280;59925;52.136;5.420;2022-12-24T08:08:37;101227.81;;;8.42;100.00
72061;BME280;59925;52.136;5.420;2022-12-24T08:11:05;101233.16;;;8.42;100.00
72061;BME280;59925;52.136;5.420;2022-12-24T08:13:32;101240.13;;;8.43;100.00
72061;BME280;59925;52.136;5.420;2022-12-24T08:15:59;101234.78;;;8.43;100.00
72061;BME280;59925;52.136;5.420;2022-12-24T08:18:26;101241.97;;;8.43;100.00
72061;BME280;59925;52.136;5.420;2022-12-24T08:20:52;101240.13;;;8.43;100.00
72061;BME280;59925;52.136;5.420;2022-12-24T08:23:19;101241.75;;;8.44;100.00
72061;BME280;59925;52.136;5.420;2022-12-24T08:25:47;101252.44;;;8.44;100.00
72061;BME280;59925;52.136;5.420;2022-12-24T08:28:15;101257.78;;;8.44;100.00
72061;BME280;59925;52.136;5.420;2022-12-24T08:30:42;101262.28;;;8.44;100.00
72061;BME280;59925;52.136;5.420;2022-12-24T08:33:09;101259.03;;;8.42;100.00
72061;BME280;59925;52.136;5.420;2022-12-24T08:35:36;101255.44;;;8.48;100.00
72061;BME280;59925;52.136;5.420;2022-12-24T08:38:03;101250.97;;;8.54;100.00
72061;BME280;59925;52.136;5.420;2022-12-24T08:40:29;101258.81;;;8.61;100.00
72061;BME280;59925;52.136;5.420;2022-12-24T08:42:56;101265.53;;;8.63;100.00
72061;BME280;59925;52.136;5.420;2022-12-24T08:45:22;101266.94;;;8.66;100.00
72061;BME280;59925;52.136;5.420;2022-12-24T08:47:48;101267.72;;;8.66;100.00
72061;BME280;59925;52.136;5.420;2022-12-24T08:50:15;101286.75;;;8.70;100.00
72061;BME280;59925;52.136;5.420;2022-12-24T08:52:41;101279.78;;;8.69;100.00
72061;BME280;59925;52.136;5.420;2022-12-24T08:55:08;101288.63;;;8.69;100.00
72061;BME280;59925;52.136;5.420;2022-12-24T08:57:35;101290.47;;;8.69;100.00
72061;BME280;59925;52.136;5.420;2022-12-24T09:00:05;101296.16;;;8.72;100.00
72061;BME280;59925;52.136;5.420;2022-12-24T09:02:32;101289.25;;;8.77;100.00
72061;BME280;59925;52.136;5.420;2022-12-24T09:04:58;101289.81;;;8.79;100.00
72061;BME280;59925;52.136;5.420;2022-12-24T09:07:25;101301.94;;;8.86;100.00
72061;BME280;59925;52.136;5.420;2022-12-24T09:09:51;101301.22;;;8.91;100.00
72061;BME280;59925;52.136;5.420;2022-12-24T09:12:17;101307.38;;;8.92;100.00
72061;BME280;59925;52.136;5.420;2022-12-24T09:14:44;101312.72;;;8.92;100.00
72061;BME280;59925;52.136;5.420;2022-12-24T09:17:10;101312.47;;;8.93;100.00
72061;BME280;59925;52.136;5.420;2022-12-24T09:19:37;101317.81;;;8.93;100.00
72061;BME280;59925;52.136;5.420;2022-12-24T09:22:03;101319.19;;;8.96;100.00
72061;BME280;59925;52.136;5.420;2022-12-24T09:24:30;101321.84;;;8.96;100.00
72061;BME280;59925;52.136;5.420;2022-12-24T09:26:56;101325.09;;;8.98;100.00
72061;BME280;59925;52.136;5.420;2022-12-24T09:29:24;101343.59;;;8.99;100.00
72061;BME280;59925;52.136;5.420;2022-12-24T09:31:50;101341.47;;;9.01;100.00
72061;BME280;59925;52.136;5.420;2022-12-24T09:34:17;101338.56;;;9.03;100.00
72061;BME280;59925;52.136;5.420;2022-12-24T09:36:43;101358.38;;;9.07;100.00
72061;BME280;59925;52.136;5.420;2022-12-24T09:39:11;101349.06;;;9.10;100.00
72061;BME280;59925;52.136;5.420;2022-12-24T09:47:09;101365.56;;;9.24;100.00
72061;BME280;59925;52.136;5.420;2022-12-24T09:49:40;101375.69;;;9.22;100.00
72061;BME280;59925;52.136;5.420;2022-12-24T09:52:11;101381.88;;;9.22;100.00
72061;BME280;59925;52.136;5.420;2022-12-24T09:54:46;101375.69;;;9.22;100.00
72061;BME280;59925;52.136;5.420;2022-12-24T09:57:41;101363.91;;;9.17;99.83
72061;BME280;59925;52.136;5.420;2022-12-24T10:00:36;101367.84;;;9.15;100.00
72061;BME280;59925;52.136;5.420;2022-12-24T10:03:14;101374.06;;;9.20;99.85
72061;BME280;59925;52.136;5.420;2022-12-24T10:06:03;101375.03;;;9.31;99.83
72061;BME280;59925;52.136;5.420;2022-12-24T10:17:13;101375.47;;;9.23;99.49
72061;BME280;59925;52.136;5.420;2022-12-24T10:19:53;101387.28;;;9.27;99.38
72061;BME280;59925;52.136;5.420;2022-12-24T10:22:31;101377.13;;;9.29;99.22
72061;BME280;59925;52.136;5.420;2022-12-24T10:25:20;101386.22;;;9.28;99.32
72061;BME280;59925;52.136;5.420;2022-12-24T10:27:49;101376.72;;;9.38;98.84
72061;BME280;59925;52.136;5.420;2022-12-24T10:30:20;101387.88;;;9.51;98.92
72061;BME280;59925;52.136;5.420;2022-12-24T10:32:50;101377.28;;;9.62;98.41
72061;BME280;59925;52.136;5.420;2022-12-24T10:37:47;101378.22;;;9.73;98.07
72061;BME280;59925;52.136;5.420;2022-12-24T10:42:49;101384.91;;;9.97;97.15
72061;BME280;59925;52.136;5.420;2022-12-24T10:45:19;101381.34;;;10.14;96.96
72061;BME280;59925;52.136;5.420;2022-12-24T10:47:49;101384.13;;;10.24;96.75
72061;BME280;59925;52.136;5.420;2022-12-24T10:50:30;101391.88;;;10.26;95.63
72061;BME280;59925;52.136;5.420;2022-12-24T10:53:24;101384.03;;;10.14;95.32
72061;BME280;59925;52.136;5.420;2022-12-24T10:56:00;101389.38;;;10.14;95.44
72061;BME280;59925;52.136;5.420;2022-12-24T10:58:27;101383.75;;;10.16;95.61
72061;BME280;59925;52.136;5.420;2022-12-24T11:00:54;101393.06;;;10.08;95.56
72061;BME280;59925;52.136;5.420;2022-12-24T11:03:23;101394.56;;;9.99;95.38
72061;BME280;59925;52.136;5.420;2022-12-24T11:06:02;101402.03;;;9.96;95.28
72061;BME280;59925;52.136;5.420;2022-12-24T11:08:29;101396.44;;;9.98;95.32
72061;BME280;59925;52.136;5.420;2022-12-24T11:10:58;101402.66;;;10.04;95.46
72061;BME280;59925;52.136;5.420;2022-12-24T11:13:30;101399.44;;;10.02;95.08
72061;BME280;59925;52.136;5.420;2022-12-24T11:16:07;101400.19;;;9.97;94.48
72061;BME280;59925;52.136;5.420;2022-12-24T11:18:37;101400.13;;;9.92;93.95
72061;BME280;59925;52.136;5.420;2022-12-24T11:21:37;101389.59;;;9.85;93.77
72061;BME280;59925;52.136;5.420;2022-12-24T11:24:12;101401.38;;;9.84;93.67
72061;BME280;59925;52.136;5.420;2022-12-24T11:26:46;101398.28;;;9.92;93.73
72061;BME280;59925;52.136;5.420;2022-12-24T11:29:21;101398.88;;;10.00;93.90
72061;BME280;59925;52.136;5.420;2022-12-24T11:31:49;101399.66;;;10.00;94.21
72061;BME280;59925;52.136;5.420;2022-12-24T11:34:36;101396.44;;;9.98;93.66
72061;BME280;59925;52.136;5.420;2022-12-24T11:37:22;101402.81;;;9.92;93.93
72061;BME280;59925;52.136;5.420;2022-12-24T11:42:24;101407.84;;;9.88;94.04
72061;BME280;59925;52.136;5.420;2022-12-24T11:44:54;101407.28;;;9.86;93.62
72061;BME280;59925;52.136;5.420;2022-12-24T11:47:32;101415.03;;;9.82;93.67
72061;BME280;59925;52.136;5.420;2022-12-24T11:52:56;101421.19;;;9.83;93.16
72061;BME280;59925;52.136;5.420;2022-12-24T11:55:34;101418.81;;;9.87;93.10
72061;BME280;59925;52.136;5.420;2022-12-24T11:58:38;101423.84;;;9.83;92.09
72061;BME280;59925;52.136;5.420;2022-12-24T12:01:42;101419.31;;;9.84;91.83
72061;BME280;59925;52.136;5.420;2022-12-24T12:04:23;101428.47;;;9.88;91.53
72061;BME280;59925;52.136;5.420;2022-12-24T12:06:55;101428.53;;;9.93;91.52
72061;BME280;59925;52.136;5.420;2022-12-24T12:09:27;101420.59;;;10.03;91.09
72061;BME280;59925;52.136;5.420;2022-12-24T12:12:03;101435.41;;;10.11;89.81
72061;BME280;59925;52.136;5.420;2022-12-24T12:14:50;101426.06;;;10.13;89.34
72061;BME280;59925;52.136;5.420;2022-12-24T12:20:03;101444.03;;;10.13;88.51
72061;BME280;59925;52.136;5.420;2022-12-24T12:25:03;101445.88;;;10.12;88.90
72061;BME280;59925;52.136;5.420;2022-12-24T12:27:42;101453.03;;;10.07;88.56
72061;BME280;59925;52.136;5.420;2022-12-24T12:30:15;101451.94;;;10.03;88.60
72061;BME280;59925;52.136;5.420;2022-12-24T12:32:57;101459.72;;;10.04;88.44
72061;BME280;59925;52.136;5.420;2022-12-24T12:35:32;101460.78;;;10.03;88.64
72061;BME280;59925;52.136;5.420;2022-12-24T12:38:04;101456.47;;;10.02;88.42
72061;BME280;59925;52.136;5.420;2022-12-24T12:51:12;101463.53;;;10.08;87.55
72061;BME280;59925;52.136;5.420;2022-12-24T12:53:49;101469.75;;;10.14;87.87
72061;BME280;59925;52.136;5.420;2022-12-24T12:56:26;101474.63;;;10.17;87.84
72061;BME280;59925;52.136;5.420;2022-12-24T12:59:01;101477.22;;;10.12;87.94
72061;BME280;59925;52.136;5.420;2022-12-24T13:01:44;101478.53;;;10.09;87.85
72061;BME280;59925;52.136;5.420;2022-12-24T13:04:51;101472.56;;;10.02;87.64
72061;BME280;59925;52.136;5.420;2022-12-24T13:07:42;101480.53;;;9.97;87.21
72061;BME280;59925;52.136;5.420;2022-12-24T13:20:42;101466.22;;;9.86;87.42
72061;BME280;59925;52.136;5.420;2022-12-24T13:23:14;101483.97;;;9.92;87.08
72061;BME280;59925;52.136;5.420;2022-12-24T13:26:09;101482.22;;;10.03;87.52
72061;BME280;59925;52.136;5.420;2022-12-24T13:28:36;101482.50;;;10.07;87.45
72061;BME280;59925;52.136;5.420;2022-12-24T13:36:13;101503.16;;;10.28;87.34
72061;BME280;59925;52.136;5.420;2022-12-24T13:47:03;101523.56;;;10.35;86.63
72061;BME280;59925;52.136;5.420;2022-12-24T13:49:49;101526.81;;;10.37;86.84
72061;BME280;59925;52.136;5.420;2022-12-24T13:52:23;101522.50;;;10.36;86.62
72061;BME280;59925;52.136;5.420;2022-12-24T13:57:30;101519.53;;;10.10;85.72
72061;BME280;59925;52.136;5.420;2022-12-24T14:02:37;101525.56;;;10.00;86.11
72061;BME280;59925;52.136;5.420;2022-12-24T14:05:07;101536.53;;;9.99;86.49
72061;BME280;59925;52.136;5.420;2022-12-24T14:07:47;101537.59;;;9.97;86.28
72061;BME280;59925;52.136;5.420;2022-12-24T14:10:22;101538.66;;;9.96;86.46
72061;BME280;59925;52.136;5.420;2022-12-24T14:12:51;101547.56;;;10.02;86.86
72061;BME280;59925;52.136;5.420;2022-12-24T14:18:21;101553.22;;;10.06;86.93
72061;BME280;59925;52.136;5.420;2022-12-24T14:20:53;101553.22;;;10.06;86.67
72061;BME280;59925;52.136;5.420;2022-12-24T14:23:30;101562.34;;;10.05;86.81
72061;BME280;59925;52.136;5.420;2022-12-24T14:26:00;101555.91;;;10.06;87.06
72061;BME280;59925;52.136;5.420;2022-12-24T14:28:33;101545.72;;;10.03;86.95
72061;BME280;59925;52.136;5.420;2022-12-24T14:31:02;101556.41;;;10.03;86.91
72061;BME280;59925;52.136;5.420;2022-12-24T14:33:30;101550.97;;;9.97;86.51
72061;BME280;59925;52.136;5.420;2022-12-24T14:35:58;101559.03;;;9.97;86.89